createdAt,value
2018-02-13T00:01:59.138Z,2.63
2018-02-13T00:04:27.707Z,2.66
2018-02-13T00:06:56.030Z,2.87
2018-02-13T00:09:24.376Z,2.79
2018-02-13T00:11:52.848Z,2.86
2018-02-13T00:14:21.229Z,2.78
2018-02-13T00:16:49.591Z,2.75
2018-02-13T00:19:17.924Z,2.62
2018-02-13T00:21:46.285Z,2.66
2018-02-13T00:24:14.990Z,2.73
2018-02-13T00:26:43.288Z,2.51
2018-02-13T00:29:12.383Z,2.63
2018-02-13T00:31:40.777Z,2.64
2018-02-13T00:34:09.894Z,2.72
2018-02-13T00:36:38.252Z,2.73
2018-02-13T00:39:07.429Z,2.60
2018-02-13T00:41:35.811Z,2.69
2018-02-13T00:44:04.889Z,2.73
2018-02-13T00:46:33.698Z,2.60
2018-02-13T00:49:02.009Z,2.67
2018-02-13T00:51:30.419Z,2.59
2018-02-13T00:53:58.938Z,2.59
2018-02-13T00:56:27.299Z,2.43
2018-02-13T00:58:55.653Z,2.59
2018-02-13T01:01:24.062Z,2.68
2018-02-13T01:03:52.382Z,2.44
2018-02-13T01:06:20.692Z,2.52
2018-02-13T01:08:49.443Z,2.56
2018-02-13T01:11:17.780Z,2.62
2018-02-13T01:13:46.091Z,2.57
2018-02-13T01:16:15.263Z,2.28
2018-02-13T01:18:43.602Z,2.45
2018-02-13T01:21:11.983Z,2.52
2018-02-13T01:23:40.428Z,2.58
2018-02-13T01:26:09.582Z,2.66
2018-02-13T01:28:38.077Z,2.68
2018-02-13T01:31:06.758Z,2.82
2018-02-13T01:33:35.073Z,2.67
2018-02-13T01:36:03.387Z,2.57
2018-02-13T01:38:31.778Z,2.52
2018-02-13T01:41:00.158Z,2.30
2018-02-13T01:43:28.448Z,2.48
2018-02-13T01:45:56.765Z,2.63
2018-02-13T01:48:25.870Z,2.44
2018-02-13T01:50:54.185Z,2.46
2018-02-13T01:53:23.065Z,2.35
2018-02-13T01:55:51.392Z,2.34
2018-02-13T01:58:20.526Z,2.17
2018-02-13T02:00:48.929Z,2.09
2018-02-13T02:03:17.229Z,2.23
2018-02-13T02:05:45.613Z,2.25
2018-02-13T02:08:13.989Z,2.31
2018-02-13T02:10:42.316Z,2.26
2018-02-13T02:13:10.659Z,2.27
2018-02-13T02:15:39.417Z,2.18
2018-02-13T02:18:07.788Z,2.22
2018-02-13T02:20:36.300Z,2.32
2018-02-13T02:23:04.673Z,2.38
2018-02-13T02:25:33.017Z,2.18
2018-02-13T02:28:01.327Z,2.09
2018-02-13T02:30:29.707Z,2.05
2018-02-13T02:32:58.853Z,1.97
2018-02-13T02:35:27.164Z,1.93
2018-02-13T02:37:55.700Z,2.03
2018-02-13T02:40:24.029Z,1.97
2018-02-13T02:43:06.116Z,2.11
2018-02-13T02:45:34.460Z,2.05
2018-02-13T02:48:02.812Z,1.94
2018-02-13T02:50:31.258Z,2.00
2018-02-13T02:52:59.603Z,1.98
2018-02-13T02:55:27.945Z,1.95
2018-02-13T02:57:57.717Z,1.89
2018-02-13T03:00:26.039Z,1.86
2018-02-13T03:02:54.370Z,1.87
2018-02-13T03:05:22.732Z,1.92
2018-02-13T03:07:51.090Z,1.97
2018-02-13T03:10:19.434Z,1.81
2018-02-13T03:12:47.814Z,1.81
2018-02-13T03:15:16.909Z,1.98
2018-02-13T03:17:46.018Z,1.84
2018-02-13T03:20:14.797Z,2.00
2018-02-13T03:22:43.134Z,1.98
2018-02-13T03:25:11.462Z,1.85
2018-02-13T03:27:40.604Z,1.93
2018-02-13T03:30:08.912Z,1.82
2018-02-13T03:32:37.281Z,1.68
2018-02-13T03:35:05.675Z,1.67
2018-02-13T03:37:34.040Z,1.77
2018-02-13T03:40:02.371Z,1.73
2018-02-13T03:42:31.121Z,1.78
2018-02-13T03:44:59.470Z,1.90
2018-02-13T03:47:27.788Z,2.00
2018-02-13T03:49:56.911Z,1.75
2018-02-13T03:52:25.240Z,1.84
2018-02-13T03:54:53.566Z,1.64
2018-02-13T03:57:21.940Z,1.77
2018-02-13T03:59:50.320Z,1.41
2018-02-13T04:02:18.660Z,1.71
2018-02-13T04:04:47.691Z,1.52
2018-02-13T04:07:16.072Z,1.67
2018-02-13T04:09:44.408Z,1.45
2018-02-13T04:12:12.751Z,1.44
2018-02-13T04:14:41.060Z,1.57
2018-02-13T04:17:09.384Z,1.67
2018-02-13T04:19:37.931Z,1.62
2018-02-13T04:22:06.379Z,1.72
2018-02-13T04:24:34.727Z,1.65
2018-02-13T04:27:03.273Z,1.67
2018-02-13T04:29:33.093Z,1.62
2018-02-13T04:32:01.410Z,1.43
2018-02-13T04:34:29.754Z,1.75
2018-02-13T04:36:58.082Z,1.82
2018-02-13T04:39:26.439Z,1.91
2018-02-13T04:41:54.809Z,1.68
2018-02-13T04:44:23.880Z,1.85
2018-02-13T04:46:52.219Z,1.77
2018-02-13T04:49:21.036Z,1.76
2018-02-13T04:51:50.106Z,1.79
2018-02-13T04:54:18.591Z,1.65
2018-02-13T04:56:46.987Z,1.63
2018-02-13T04:59:15.304Z,1.60
2018-02-13T05:01:43.695Z,1.72
2018-02-13T05:04:12.024Z,1.61
2018-02-13T05:06:40.317Z,1.48
2018-02-13T05:09:08.652Z,1.53
2018-02-13T05:11:37.490Z,1.56
2018-02-13T05:14:05.850Z,1.68
2018-02-13T05:16:34.270Z,1.64
2018-02-13T05:19:02.617Z,1.48
2018-02-13T05:21:31.704Z,1.80
2018-02-13T05:24:00.006Z,1.49
2018-02-13T05:26:29.108Z,1.65
2018-02-13T05:28:58.243Z,1.64
2018-02-13T05:31:26.580Z,1.42
2018-02-13T05:33:55.884Z,1.42
2018-02-13T05:36:24.979Z,1.53
2018-02-13T05:38:54.064Z,1.59
2018-02-13T05:41:22.756Z,1.59
2018-02-13T05:43:51.092Z,1.64
2018-02-13T05:46:19.412Z,1.44
2018-02-13T05:48:47.760Z,1.48
2018-02-13T05:51:16.068Z,1.51
2018-02-13T05:53:44.377Z,1.32
2018-02-13T05:56:12.791Z,1.28
2018-02-13T05:58:41.151Z,1.29
2018-02-13T06:01:09.461Z,1.36
2018-02-13T06:03:37.810Z,1.45
2018-02-13T06:06:06.136Z,1.51
2018-02-13T06:08:34.487Z,1.47
2018-02-13T06:11:02.844Z,1.41
2018-02-13T06:13:31.304Z,1.46
2018-02-13T06:16:00.390Z,1.58
2018-02-13T06:18:29.802Z,1.53
2018-02-13T06:20:58.124Z,1.48
2018-02-13T06:23:26.494Z,1.50
2018-02-13T06:25:54.868Z,1.38
2018-02-13T06:28:23.178Z,1.28
2018-02-13T06:30:51.502Z,1.68
2018-02-13T06:33:19.863Z,1.67
2018-02-13T06:35:48.168Z,1.71
2018-02-13T06:38:16.520Z,1.68
2018-02-13T06:40:45.699Z,1.83
2018-02-13T06:43:14.041Z,1.65
2018-02-13T06:45:43.363Z,1.62
2018-02-13T06:48:11.743Z,1.86
2018-02-13T06:50:40.069Z,1.87
2018-02-13T06:53:08.409Z,1.84
2018-02-13T06:55:36.784Z,1.89
2018-02-13T06:58:05.158Z,1.95
2018-02-13T07:00:33.474Z,1.94
2018-02-13T07:03:02.945Z,2.06
2018-02-13T07:05:31.260Z,2.06
2018-02-13T07:08:00.362Z,2.25
2018-02-13T07:10:29.767Z,2.37
2018-02-13T07:12:58.214Z,2.60
2018-02-13T07:15:26.544Z,2.90
2018-02-13T07:17:54.886Z,3.12
2018-02-13T07:20:23.224Z,3.01
2018-02-13T07:22:51.587Z,3.70
2018-02-13T07:25:20.457Z,4.26
2018-02-13T07:27:48.752Z,4.56
2018-02-13T07:30:17.077Z,5.06
2018-02-13T07:32:45.447Z,5.54
2018-02-13T07:35:13.775Z,5.50
2018-02-13T07:37:42.132Z,6.09
2018-02-13T07:40:11.240Z,6.01
2018-02-13T07:42:40.345Z,6.04
2018-02-13T07:45:08.668Z,6.83
2018-02-13T07:47:37.789Z,7.65
2018-02-13T07:50:06.180Z,7.75
2018-02-13T07:52:35.262Z,8.04
2018-02-13T07:55:03.608Z,8.69
2018-02-13T07:57:31.912Z,8.86
2018-02-13T08:00:00.217Z,9.20
2018-02-13T08:02:28.603Z,9.85
2018-02-13T08:04:56.961Z,9.97
2018-02-13T08:07:25.299Z,9.85
2018-02-13T08:09:54.762Z,9.63
2018-02-13T08:12:23.104Z,10.58
2018-02-13T08:14:51.458Z,11.26
2018-02-13T08:17:19.808Z,11.89
2018-02-13T08:19:48.165Z,12.27
2018-02-13T08:22:17.266Z,11.40
2018-02-13T08:24:46.400Z,10.80
2018-02-13T08:27:14.740Z,11.56
2018-02-13T08:29:43.826Z,12.11
2018-02-13T08:32:12.721Z,12.87
2018-02-13T08:34:41.813Z,12.36
2018-02-13T08:37:10.957Z,12.22
2018-02-13T08:39:39.301Z,12.05
2018-02-13T08:42:08.443Z,12.27
2018-02-13T08:44:36.758Z,12.51
2018-02-13T08:47:05.126Z,13.17
2018-02-13T08:49:33.471Z,14.00
2018-02-13T08:52:01.820Z,13.95
2018-02-13T08:54:30.594Z,13.59
2018-02-13T08:56:59.747Z,13.76
2018-02-13T08:59:28.207Z,14.84
2018-02-13T09:01:56.598Z,13.88
2018-02-13T09:04:24.937Z,13.57
2018-02-13T09:06:54.097Z,14.06
2018-02-13T09:09:22.404Z,14.96
2018-02-13T09:11:50.772Z,15.90
2018-02-13T09:14:19.080Z,14.91
2018-02-13T09:16:47.751Z,14.94
2018-02-13T09:19:16.849Z,15.17
2018-02-13T09:21:45.934Z,15.26
2018-02-13T09:24:14.314Z,15.07
2018-02-13T09:26:42.667Z,15.00
2018-02-13T09:29:11.004Z,15.49
2018-02-13T09:31:39.349Z,16.89
2018-02-13T09:34:07.708Z,17.09
2018-02-13T09:36:36.000Z,15.18
2018-02-13T09:39:04.515Z,15.53
2018-02-13T09:41:33.582Z,15.87
2018-02-13T09:44:01.927Z,14.30
2018-02-13T09:46:30.291Z,15.24
2018-02-13T09:48:58.605Z,13.84
2018-02-13T09:51:27.047Z,15.04
2018-02-13T09:53:55.400Z,15.34
2018-02-13T09:56:24.506Z,16.65
2018-02-13T09:58:53.396Z,18.39
2018-02-13T10:01:22.182Z,19.07
2018-02-13T10:03:50.515Z,18.33
2018-02-13T10:06:18.863Z,17.72
2018-02-13T10:08:47.234Z,20.00
2018-02-13T10:11:15.556Z,18.33
2018-02-13T10:13:43.907Z,17.37
2018-02-13T10:16:12.273Z,20.41
2018-02-13T10:18:40.584Z,21.63
2018-02-13T10:21:08.926Z,21.33
2018-02-13T10:23:37.591Z,15.44
2018-02-13T10:26:05.973Z,13.12
2018-02-13T10:28:34.334Z,11.98
2018-02-13T10:31:03.461Z,12.10
2018-02-13T10:33:31.786Z,11.96
2018-02-13T10:36:00.100Z,12.75
2018-02-13T10:38:29.242Z,13.10
2018-02-13T10:40:57.767Z,13.72
2018-02-13T10:43:26.880Z,13.74
2018-02-13T10:45:56.496Z,10.63
2018-02-13T10:48:25.686Z,12.79
2018-02-13T10:50:54.788Z,15.44
2018-02-13T10:53:23.900Z,15.29
2018-02-13T10:55:52.230Z,14.32
2018-02-13T10:58:20.525Z,14.88
2018-02-13T11:00:54.502Z,14.11
2018-02-13T11:03:22.891Z,16.97
2018-02-13T11:05:51.249Z,18.99
2018-02-13T11:08:20.290Z,17.85
2018-02-13T11:10:49.384Z,18.83
2018-02-13T11:13:18.531Z,21.00
2018-02-13T11:15:46.864Z,19.79
2018-02-13T11:18:15.191Z,19.49
2018-02-13T11:20:43.516Z,18.39
2018-02-13T11:23:12.666Z,18.18
2018-02-13T11:25:41.032Z,19.87
2018-02-13T11:28:09.372Z,19.92
2018-02-13T11:30:39.000Z,19.83
2018-02-13T11:33:07.349Z,20.10
2018-02-13T11:35:35.681Z,19.04
2018-02-13T11:38:04.083Z,19.64
2018-02-13T11:40:33.185Z,21.01
2018-02-13T11:43:01.632Z,20.25
2018-02-13T11:45:29.992Z,21.31
2018-02-13T11:47:58.328Z,21.32
2018-02-13T11:50:26.692Z,21.90
2018-02-13T11:52:55.325Z,21.29
2018-02-13T11:55:23.667Z,19.80
2018-02-13T11:57:52.023Z,20.59
2018-02-13T12:00:21.021Z,19.49
2018-02-13T12:02:49.373Z,19.18
2018-02-13T12:05:17.739Z,18.62
2018-02-13T12:07:46.167Z,19.19
2018-02-13T12:10:14.553Z,18.36
2018-02-13T12:12:43.090Z,18.93
2018-02-13T12:15:11.698Z,20.15
2018-02-13T12:17:40.069Z,20.28
2018-02-13T12:20:08.394Z,19.94
2018-02-13T12:22:36.984Z,20.66
2018-02-13T12:25:06.113Z,19.53
2018-02-13T12:27:34.478Z,19.99
2018-02-13T12:30:03.639Z,20.25
2018-02-13T12:32:31.955Z,20.19
2018-02-13T12:35:01.081Z,19.81
2018-02-13T12:37:29.664Z,20.73
2018-02-13T12:39:58.056Z,19.34
2018-02-13T12:42:26.408Z,19.56
2018-02-13T12:44:54.775Z,21.05
2018-02-13T12:47:23.888Z,21.47
2018-02-13T12:49:52.243Z,20.43
2018-02-13T12:52:20.864Z,18.91
2018-02-13T12:54:49.207Z,18.92
2018-02-13T12:57:17.599Z,18.77
2018-02-13T12:59:46.626Z,19.32
2018-02-13T13:02:15.523Z,18.39
2018-02-13T13:04:43.876Z,18.67
2018-02-13T13:07:12.318Z,18.79
2018-02-13T13:09:40.627Z,18.67
2018-02-13T13:12:08.962Z,20.49
2018-02-13T13:14:37.324Z,19.31
2018-02-13T13:17:05.695Z,18.53
2018-02-13T13:19:34.112Z,18.62
2018-02-13T13:22:02.567Z,18.54
2018-02-13T13:24:31.735Z,19.86
2018-02-13T13:27:00.061Z,19.92
2018-02-13T13:29:28.393Z,21.57
2018-02-13T13:31:57.028Z,22.82
2018-02-13T13:34:25.380Z,21.11
2018-02-13T13:36:54.525Z,21.27
2018-02-13T13:39:23.633Z,20.33
2018-02-13T13:41:52.215Z,18.23
2018-02-13T13:44:21.922Z,18.23
2018-02-13T13:46:50.325Z,18.94
2018-02-13T13:49:18.660Z,19.23
2018-02-13T13:51:47.007Z,18.62
2018-02-13T13:54:15.367Z,19.02
2018-02-13T13:56:43.725Z,19.56
2018-02-13T13:59:12.093Z,18.52
2018-02-13T14:01:41.195Z,19.10
2018-02-13T14:04:10.283Z,17.87
2018-02-13T14:06:39.914Z,18.64
2018-02-13T14:09:08.221Z,18.66
2018-02-13T14:11:36.582Z,18.54
2018-02-13T14:14:04.973Z,18.06
2018-02-13T14:16:33.324Z,18.38
2018-02-13T14:19:02.075Z,19.14
2018-02-13T14:21:31.216Z,18.83
2018-02-13T14:23:59.600Z,16.54
2018-02-13T14:26:27.932Z,16.91
2018-02-13T14:28:56.620Z,17.86
2018-02-13T14:31:24.935Z,18.07
2018-02-13T14:33:53.408Z,18.56
2018-02-13T14:36:21.817Z,16.38
2018-02-13T14:38:50.236Z,16.82
2018-02-13T14:41:18.594Z,17.38
2018-02-13T14:43:46.960Z,18.11
2018-02-13T14:46:15.295Z,18.37
2018-02-13T14:48:44.397Z,18.12
2018-02-13T14:51:13.711Z,16.78
2018-02-13T14:53:42.029Z,17.08
2018-02-13T14:56:10.376Z,16.38
2018-02-13T14:58:38.722Z,15.38
2018-02-13T15:01:07.120Z,15.76
2018-02-13T15:03:36.195Z,15.36
2018-02-13T15:06:05.666Z,15.39
2018-02-13T15:08:34.024Z,16.14
2018-02-13T15:11:02.347Z,16.15
2018-02-13T15:13:30.970Z,16.32
2018-02-13T15:15:59.283Z,15.53
2018-02-13T15:18:27.664Z,15.87
2018-02-13T15:20:56.045Z,15.56
2018-02-13T15:23:25.186Z,15.98
2018-02-13T15:25:54.283Z,15.60
2018-02-13T15:28:23.388Z,15.61
2018-02-13T15:30:52.516Z,14.25
2018-02-13T15:33:20.877Z,14.45
2018-02-13T15:35:49.559Z,14.46
2018-02-13T15:38:17.963Z,13.79
2018-02-13T15:40:46.275Z,14.14
2018-02-13T15:43:15.192Z,13.76
2018-02-13T15:45:44.295Z,13.96
2018-02-13T15:48:13.430Z,13.97
2018-02-13T15:50:41.765Z,12.60
2018-02-13T15:53:10.872Z,11.68
2018-02-13T15:55:39.204Z,11.26
2018-02-13T15:58:08.095Z,11.19
2018-02-13T16:00:36.406Z,11.08
2018-02-13T16:03:04.717Z,10.54
2018-02-13T16:05:33.137Z,10.40
2018-02-13T16:08:01.710Z,10.08
2018-02-13T16:10:30.016Z,10.04
2018-02-13T16:12:59.177Z,9.88
2018-02-13T16:15:27.460Z,9.59
2018-02-13T16:17:55.811Z,9.52
2018-02-13T16:20:24.353Z,9.27
2018-02-13T16:22:52.675Z,9.16
2018-02-13T16:25:20.975Z,9.13
2018-02-13T16:27:49.315Z,8.93
2018-02-13T16:30:17.695Z,8.70
2018-02-13T16:32:46.029Z,8.62
2018-02-13T16:35:14.374Z,8.47
2018-02-13T16:37:42.694Z,8.43
2018-02-13T16:40:11.009Z,8.24
2018-02-13T16:42:39.954Z,8.09
2018-02-13T16:45:08.269Z,8.00
2018-02-13T16:47:36.587Z,7.92
2018-02-13T16:50:05.681Z,7.84
2018-02-13T16:52:34.039Z,7.57
2018-02-13T16:55:02.357Z,7.47
2018-02-13T16:57:30.718Z,7.39
2018-02-13T16:59:59.825Z,7.17
2018-02-13T17:02:28.203Z,7.03
2018-02-13T17:04:57.523Z,6.87
2018-02-13T17:07:25.867Z,6.97
2018-02-13T17:09:54.186Z,7.04
2018-02-13T17:12:22.560Z,6.82
2018-02-13T17:14:50.874Z,6.79
2018-02-13T17:17:19.210Z,6.67
2018-02-13T17:19:47.552Z,6.60
2018-02-13T17:22:15.907Z,6.67
2018-02-13T17:24:44.328Z,6.71
2018-02-13T17:27:13.275Z,6.62
2018-02-13T17:29:41.651Z,6.61
2018-02-13T17:32:10.740Z,6.36
2018-02-13T17:34:39.876Z,6.41
2018-02-13T17:37:08.213Z,6.29
2018-02-13T17:39:37.343Z,5.99
2018-02-13T17:42:05.685Z,5.94
2018-02-13T17:44:34.785Z,5.72
2018-02-13T17:47:03.865Z,5.53
2018-02-13T17:49:32.490Z,5.75
2018-02-13T17:52:00.949Z,5.79
2018-02-13T17:54:29.275Z,5.87
2018-02-13T17:56:57.613Z,5.83
2018-02-13T17:59:26.699Z,5.98
2018-02-13T18:01:55.788Z,5.88
2018-02-13T18:04:24.118Z,5.72
2018-02-13T18:06:52.492Z,5.56
2018-02-13T18:09:20.832Z,5.72
2018-02-13T18:11:50.078Z,5.85
2018-02-13T18:14:18.402Z,5.63
2018-02-13T18:16:46.843Z,5.61
2018-02-13T18:19:15.166Z,5.39
2018-02-13T18:21:43.497Z,5.44
2018-02-13T18:24:11.813Z,5.48
2018-02-13T18:26:40.180Z,5.53
2018-02-13T18:29:08.517Z,5.41
2018-02-13T18:31:36.837Z,5.39
2018-02-13T18:34:05.451Z,5.54
2018-02-13T18:36:34.643Z,5.44
2018-02-13T18:39:03.746Z,5.46
2018-02-13T18:41:32.094Z,5.00
2018-02-13T18:44:00.415Z,5.19
2018-02-13T18:46:28.859Z,5.25
2018-02-13T18:48:57.214Z,5.45
2018-02-13T18:51:25.552Z,5.11
2018-02-13T18:53:54.059Z,5.27
2018-02-13T18:56:22.602Z,5.17
2018-02-13T18:58:51.678Z,5.20
2018-02-13T19:01:20.029Z,5.21
2018-02-13T19:03:48.416Z,5.07
2018-02-13T19:06:16.742Z,4.98
2018-02-13T19:08:45.845Z,4.83
2018-02-13T19:11:14.216Z,4.76
2018-02-13T19:13:43.355Z,4.64
2018-02-13T19:16:11.918Z,4.62
2018-02-13T19:18:41.225Z,4.67
2018-02-13T19:21:09.554Z,4.80
2018-02-13T19:23:37.933Z,4.82
2018-02-13T19:26:06.283Z,4.68
2018-02-13T19:28:34.637Z,4.62
2018-02-13T19:31:02.978Z,4.72
2018-02-13T19:33:31.330Z,4.58
2018-02-13T19:35:59.799Z,4.33
2018-02-13T19:38:28.144Z,4.17
2018-02-13T19:40:56.668Z,4.20
2018-02-13T19:43:25.109Z,4.43
2018-02-13T19:45:53.819Z,4.29
2018-02-13T19:48:23.048Z,4.36
2018-02-13T19:50:51.940Z,4.27
2018-02-13T19:53:20.312Z,4.21
2018-02-13T19:55:48.697Z,4.26
2018-02-13T19:58:17.012Z,4.26
2018-02-13T20:00:45.323Z,4.30
2018-02-13T20:03:13.831Z,4.13
2018-02-13T20:05:42.162Z,4.09
2018-02-13T20:08:10.489Z,4.12
2018-02-13T20:10:39.044Z,4.02
2018-02-13T20:13:07.509Z,3.96
2018-02-13T20:15:35.906Z,3.82
2018-02-13T20:18:04.335Z,3.94
2018-02-13T20:20:32.786Z,3.99
2018-02-13T20:23:01.335Z,3.85
2018-02-13T20:25:29.889Z,3.86
2018-02-13T20:27:58.392Z,3.83
2018-02-13T20:30:26.837Z,3.68
2018-02-13T20:32:55.321Z,3.65
2018-02-13T20:35:23.905Z,3.72
2018-02-13T20:37:52.277Z,3.63
2018-02-13T20:40:20.873Z,3.72
2018-02-13T20:42:49.348Z,3.68
2018-02-13T20:45:17.748Z,3.68
2018-02-13T20:47:46.413Z,3.44
2018-02-13T20:50:16.280Z,3.50
2018-02-13T20:52:44.712Z,3.23
2018-02-13T20:55:13.164Z,3.38
2018-02-13T20:57:41.665Z,3.38
2018-02-13T21:00:10.161Z,3.33
2018-02-13T21:02:38.665Z,3.37
2018-02-13T21:05:07.907Z,3.48
2018-02-13T21:07:36.452Z,3.52
2018-02-13T21:10:06.643Z,3.47
2018-02-13T21:12:35.848Z,3.39
2018-02-13T21:15:05.054Z,3.38
2018-02-13T21:17:33.635Z,3.42
2018-02-13T21:20:02.939Z,3.46
2018-02-13T21:22:31.337Z,3.50
2018-02-13T21:24:59.733Z,3.52
2018-02-13T21:27:28.138Z,3.28
2018-02-13T21:29:58.023Z,3.36
2018-02-13T21:32:26.458Z,3.32
2018-02-13T21:34:54.941Z,3.42
2018-02-13T21:37:23.423Z,3.30
2018-02-13T21:39:51.918Z,3.12
2018-02-13T21:42:20.290Z,2.93
2018-02-13T21:44:48.753Z,2.90
2018-02-13T21:47:17.249Z,2.93
2018-02-13T21:49:45.568Z,3.04
2018-02-13T21:52:13.921Z,3.16
2018-02-13T21:54:42.695Z,2.93
2018-02-13T21:57:11.219Z,2.85
2018-02-13T21:59:40.485Z,2.96
2018-02-13T22:02:08.826Z,2.80
2018-02-13T22:04:37.172Z,2.79
2018-02-13T22:07:05.513Z,2.74
2018-02-13T22:09:33.936Z,2.74
2018-02-13T22:12:02.272Z,2.74
2018-02-13T22:14:30.619Z,2.64
2018-02-13T22:16:59.064Z,2.59
2018-02-13T22:19:28.139Z,2.52
2018-02-13T22:21:56.542Z,2.54
2018-02-13T22:24:25.070Z,2.55
2018-02-13T22:26:54.222Z,2.47
2018-02-13T22:29:22.565Z,2.54
2018-02-13T22:31:51.120Z,2.60
2018-02-13T22:34:19.557Z,2.58
2018-02-13T22:36:47.866Z,2.51
2018-02-13T22:39:16.347Z,2.63
2018-02-13T22:41:44.821Z,2.55
2018-02-13T22:44:13.171Z,2.53
2018-02-13T22:46:42.302Z,2.66
2018-02-13T22:49:10.870Z,2.68
2018-02-13T22:51:39.729Z,2.56
2018-02-13T22:54:08.448Z,2.54
2018-02-13T22:56:36.768Z,2.58
2018-02-13T22:59:05.184Z,2.69
2018-02-13T23:01:34.081Z,2.67
2018-02-13T23:04:02.421Z,2.62
2018-02-13T23:06:30.762Z,2.46
2018-02-13T23:08:59.132Z,2.42
2018-02-13T23:11:28.273Z,2.07
2018-02-13T23:13:56.577Z,2.30
2018-02-13T23:16:25.691Z,2.31
2018-02-13T23:18:54.794Z,2.05
2018-02-13T23:21:23.882Z,2.34
2018-02-13T23:23:53.249Z,2.30
2018-02-13T23:26:21.562Z,2.26
2018-02-13T23:28:50.044Z,2.16
2018-02-13T23:31:18.791Z,2.18
2018-02-13T23:33:47.261Z,1.98
2018-02-13T23:36:15.899Z,2.06
2018-02-13T23:38:45.049Z,1.88
2018-02-13T23:41:13.498Z,1.80
2018-02-13T23:43:41.832Z,1.94
2018-02-13T23:46:10.497Z,1.94
2018-02-13T23:48:38.897Z,2.02
2018-02-13T23:51:08.887Z,2.00
2018-02-13T23:53:37.216Z,2.01
2018-02-13T23:56:06.275Z,1.94
2018-02-13T23:58:34.677Z,1.89
